Hyalite Weather Station

This weather station provides temperature, wind speed, gust or max wind speed, and wind direction at 9982ft near the summit of Flanders Mountain. This data can be used with temperature and precipitation data from the Shower Falls SNOTEL site. If the data has not been updated recently you can view it directly on datagarrison.com

Elevation
9982ft
Jump to table bottom
Date Time Temperature
deg F
RH, % Wind Speed Wind Gust Wind Direction
10/20/18 05:00 39.0 45 7 11 W - 270
10/20/18 04:00 39.0 45 7 11 W - 261
10/20/18 03:00 38.6 44 9 14 W - 267
10/20/18 02:00 38.4 42 12 20 W - 275
10/20/18 01:00 37.7 40 14 21 W - 268
10/20/18 00:00 38.3 40 14 24 W - 270
10/19/18 23:00 38.7 39 14 21 W - 272
10/19/18 22:00 38.5 40 13 22 W - 270
10/19/18 21:00 38.3 38 14 22 W - 264
10/19/18 20:00 38.0 37 13 20 W - 265
10/19/18 19:00 38.3 37 13 20 W - 271
10/19/18 18:00 38.5 36 11 19 W - 267
10/19/18 17:00 40.9 32 11 17 W - 263
10/19/18 16:00 41.5 26 11 19 W - 267
10/19/18 15:00 42.2 22 12 23 W - 272
10/19/18 14:00 43.6 30 9 17 W - 260
10/19/18 13:00 40.4 32 8 14 SW - 247
10/19/18 12:00 38.7 38 7 13 W - 248
10/19/18 11:00 36.7 39 7 12 SW - 247
10/19/18 10:00 34.8 40 6 10 SW - 240
10/19/18 09:00 33.5 42 8 14 W - 272
10/19/18 08:00 32.7 44 11 18 W - 272
10/19/18 07:00 31.5 50 11 16 W - 267
10/19/18 06:00 31.4 53 12 17 W - 264
10/19/18 05:00 31.7 55 11 16 W - 267
10/19/18 04:00 31.7 57 12 20 W - 268
10/19/18 03:00 32.2 55 13 18 W - 261
10/19/18 02:00 32.3 54 13 18 W - 267
10/19/18 01:00 33.0 51 13 20 W - 272
10/19/18 00:00 33.2 53 14 20 W - 270
10/18/18 23:00 33.6 50 13 20 W - 274
10/18/18 22:00 34.6 49 12 19 W - 270
10/18/18 21:00 34.5 51 14 23 W - 268
10/18/18 20:00 36.7 44 15 24 W - 265
10/18/18 19:00 36.7 41 16 24 W - 268
10/18/18 18:00 37.6 38 14 27 W - 274
10/18/18 17:00 39.3 36 14 24 W - 268